Time;durP1;ratioP1;P1;durP2;ratioP2;P2;SDS_P1;SDS_P2;PMS_P1;PMS_P2;Temp;Humidity;BMP_temperature;BMP_pressure;BME280_temperature;BME280_humidity;BME280_pressure;Samples;Min_cycle;Max_cycle;Signal;HPM_P1;HPM_P2
2023/09/27 00:00:29;;;;;;;;;;;;;;;18.34;70.96;99679.44;5071153;28;20311;-69
2023/09/27 00:02:55;;;;;;;;;;;;;;;18.59;70.11;99684.63;5071258;28;19917;-70
2023/09/27 00:05:21;;;;;;;;;;;;;;;18.93;68.78;99681.81;5082826;28;20402;-69
2023/09/27 00:07:46;;;;;;;;;;;;;;;19.04;67.64;99690.44;5091571;28;19912;-69
2023/09/27 00:10:11;;;;;;;;;;;;;;;19.10;67.35;99691.75;5091064;28;19955;-69
2023/09/27 00:12:37;;;;;;;;;;;;;;;19.18;67.08;99681.28;5088382;28;20379;-69
2023/09/27 00:15:03;;;;;;;;;;;;;;;19.19;67.60;99683.75;5075019;28;19921;-69
2023/09/27 00:17:28;;;;;;;;;;;;;;;19.27;67.72;99681.81;5090517;28;19916;-69
2023/09/27 00:19:54;;;;;;;;;;;;;;;19.32;68.02;99681.44;5083118;28;19916;-70
2023/09/27 00:22:19;;;;;;;;;;;;;;;19.33;67.92;99676.59;5095035;28;19916;-69
2023/09/27 00:24:45;;;;;;;;;;;;;;;19.14;68.74;99681.25;5094163;28;19916;-70
2023/09/27 00:27:13;;;;;;;;;;;;;;;19.00;69.83;99672.59;5091899;28;19916;-70
2023/09/27 00:29:38;;;;;;;;;;;;;;;19.04;69.69;99668.59;5083194;28;20907;-70
2023/09/27 00:32:04;;;;;;;;;;;;;;;19.17;69.91;99669.13;5074668;28;19924;-69
2023/09/27 00:34:29;;;;;;;;;;;;;;;19.27;69.67;99661.13;5074635;28;19966;-69
2023/09/27 00:36:54;;;;;;;;;;;;;;;19.21;69.79;99657.81;5074726;28;19916;-69
2023/09/27 00:39:20;;;;;;;;;;;;;;;19.28;69.64;99657.91;5074414;28;19923;-69
2023/09/27 00:41:45;;;;;;;;;;;;;;;19.30;69.58;99652.66;5074578;28;19912;-70
2023/09/27 00:44:11;;;;;;;;;;;;;;;19.41;69.43;99661.25;5073135;28;19924;-70
2023/09/27 00:46:36;;;;;;;;;;;;;;;19.40;69.37;99653.16;5073019;28;19924;-69
2023/09/27 00:49:02;;;;;;;;;;;;;;;19.43;69.22;99653.19;5080418;28;19947;-69
2023/09/27 00:51:28;;;;;;;;;;;;;;;19.49;68.86;99648.78;5074435;28;19912;-69
2023/09/27 00:53:54;;;;;;;;;;;;;;;19.46;68.93;99641.06;5075339;28;19924;-70
2023/09/27 00:56:20;;;;;;;;;;;;;;;19.53;68.45;99651.66;5092914;28;19916;-69
2023/09/27 00:58:45;;;;;;;;;;;;;;;19.54;68.38;99649.59;5075212;28;19946;-69
2023/09/27 01:01:12;;;;;;;;;;;;;;;19.49;68.34;99645.13;5074005;28;19974;-69
2023/09/27 01:03:38;;;;;;;;;;;;;;;19.52;68.10;99650.03;5080798;28;19920;-69
2023/09/27 01:06:03;;;;;;;;;;;;;;;19.57;68.06;99646.00;5093005;28;19919;-69
2023/09/27 01:08:29;;;;;;;;;;;;;;;19.47;67.99;99645.53;5077259;28;19924;-69
2023/09/27 01:10:55;;;;;;;;;;;;;;;19.41;68.08;99655.56;5074054;28;19912;-69
2023/09/27 01:13:20;;;;;;;;;;;;;;;19.35;68.12;99657.16;5073956;28;19920;-69
2023/09/27 01:15:45;;;;;;;;;;;;;;;19.32;68.15;99652.28;5073838;28;19913;-69
2023/09/27 01:18:11;;;;;;;;;;;;;;;19.24;68.34;99647.72;5086373;28;20359;-69
2023/09/27 01:20:36;;;;;;;;;;;;;;;19.19;68.69;99652.56;5080475;28;19923;-69
2023/09/27 01:23:02;;;;;;;;;;;;;;;19.12;69.09;99643.97;5072913;28;19920;-69
2023/09/27 01:25:32;;;;;;;;;;;;;;;19.22;68.58;99654.63;5073623;28;20371;-69
2023/09/27 01:27:58;;;;;;;;;;;;;;;19.24;68.23;99647.72;5084620;28;19969;-70
2023/09/27 01:30:25;;;;;;;;;;;;;;;19.27;68.06;99644.94;5093781;28;19969;-70
2023/09/27 01:32:50;;;;;;;;;;;;;;;19.12;68.28;99651.66;5093869;28;20386;-70
2023/09/27 01:35:15;;;;;;;;;;;;;;;18.74;69.53;99651.63;5093686;28;19918;-69
2023/09/27 01:37:41;;;;;;;;;;;;;;;18.91;69.25;99645.34;5074351;28;20010;-70
2023/09/27 01:40:09;;;;;;;;;;;;;;;19.00;69.00;99644.25;5073425;28;19916;-70
2023/09/27 01:42:37;;;;;;;;;;;;;;;19.08;68.45;99643.13;5073286;28;19946;-70
2023/09/27 01:45:04;;;;;;;;;;;;;;;18.93;68.91;99640.09;5073339;28;19912;-70
2023/09/27 01:47:29;;;;;;;;;;;;;;;19.02;68.50;99650.34;5072055;28;19913;-70
2023/09/27 01:49:54;;;;;;;;;;;;;;;19.02;68.61;99644.69;5073273;28;19923;-70
2023/09/27 01:52:20;;;;;;;;;;;;;;;19.04;68.59;99647.94;5072418;28;19913;-70
2023/09/27 01:54:45;;;;;;;;;;;;;;;19.03;68.03;99640.63;5071859;28;20019;-69
2023/09/27 01:57:10;;;;;;;;;;;;;;;18.95;68.24;99645.38;5076907;28;19955;-70
2023/09/27 01:59:36;;;;;;;;;;;;;;;18.84;68.75;99642.44;5093157;28;20325;-70
2023/09/27 02:02:01;;;;;;;;;;;;;;;18.77;69.09;99643.19;5073069;28;20329;-70
2023/09/27 02:04:26;;;;;;;;;;;;;;;18.76;69.32;99640.72;5071771;28;19919;-70
2023/09/27 02:06:51;;;;;;;;;;;;;;;18.72;69.36;99642.72;5073660;28;20311;-70
2023/09/27 02:09:17;;;;;;;;;;;;;;;18.69;69.41;99637.78;5079198;28;20011;-69
2023/09/27 02:11:42;;;;;;;;;;;;;;;18.72;69.10;99640.66;5072745;28;20380;-69
2023/09/27 02:14:07;;;;;;;;;;;;;;;18.59;69.92;99633.63;5072827;28;19912;-70
2023/09/27 02:16:33;;;;;;;;;;;;;;;18.45;70.18;99635.09;5072691;28;19950;-69
2023/09/27 02:18:58;;;;;;;;;;;;;;;18.16;70.85;99631.06;5091365;28;19976;-69
2023/09/27 02:21:24;;;;;;;;;;;;;;;18.32;70.32;99636.53;5091538;28;20345;-69
2023/09/27 02:23:49;;;;;;;;;;;;;;;18.50;69.53;99634.75;5092707;28;19923;-69
2023/09/27 02:26:14;;;;;;;;;;;;;;;18.38;69.58;99635.81;5081178;28;20341;-69
2023/09/27 02:28:40;;;;;;;;;;;;;;;18.40;69.83;99637.44;5071270;28;20400;-70
2023/09/27 02:31:08;;;;;;;;;;;;;;;18.42;69.67;99632.22;5072352;28;19950;-70
2023/09/27 02:33:34;;;;;;;;;;;;;;;18.41;69.84;99636.25;5072419;28;19995;-70
2023/09/27 02:35:59;;;;;;;;;;;;;;;18.13;70.91;99637.50;5072245;28;20467;-70
2023/09/27 02:38:25;;;;;;;;;;;;;;;18.04;71.58;99638.59;5072230;28;19916;-69
2023/09/27 02:40:51;;;;;;;;;;;;;;;18.18;71.31;99632.31;5070908;28;20015;-70
2023/09/27 02:43:16;;;;;;;;;;;;;;;18.17;70.96;99632.69;5072065;28;20003;-70
2023/09/27 02:45:42;;;;;;;;;;;;;;;18.01;71.70;99633.66;5074668;28;20350;-69
2023/09/27 02:48:07;;;;;;;;;;;;;;;18.03;71.88;99634.13;5092324;28;19919;-69
2023/09/27 02:50:32;;;;;;;;;;;;;;;17.98;72.22;99636.44;5092099;28;20382;-70
2023/09/27 02:52:58;;;;;;;;;;;;;;;17.91;72.41;99635.13;5092101;28;20295;-70
2023/09/27 02:55:23;;;;;;;;;;;;;;;18.01;71.86;99636.50;5082469;28;19916;-69
2023/09/27 02:57:50;;;;;;;;;;;;;;;18.10;71.50;99650.38;5071989;28;20371;-70
2023/09/27 03:00:16;;;;;;;;;;;;;;;18.02;71.65;99640.94;5071716;28;19927;-70
2023/09/27 03:02:41;;;;;;;;;;;;;;;17.88;72.07;99640.75;5071205;28;19929;-69
2023/09/27 03:05:07;;;;;;;;;;;;;;;17.54;73.23;99649.88;5071639;28;19974;-69
2023/09/27 03:07:35;;;;;;;;;;;;;;;17.56;73.29;99646.69;5070101;28;20492;-69
2023/09/27 03:10:01;;;;;;;;;;;;;;;17.46;73.95;99646.13;5070600;28;19920;-69
2023/09/27 03:12:26;;;;;;;;;;;;;;;17.42;73.97;99650.91;5071828;28;19916;-69
2023/09/27 03:14:52;;;;;;;;;;;;;;;17.51;73.97;99654.31;5071668;28;19924;-69
2023/09/27 03:17:17;;;;;;;;;;;;;;;17.45;73.90;99652.19;5071658;28;19913;-69
2023/09/27 03:19:42;;;;;;;;;;;;;;;17.52;73.64;99653.13;5071102;28;19917;-69
2023/09/27 03:22:07;;;;;;;;;;;;;;;17.55;73.51;99654.34;5070197;28;19913;-69
2023/09/27 03:24:34;;;;;;;;;;;;;;;17.57;73.38;99649.16;5071856;28;19912;-69
2023/09/27 03:27:00;;;;;;;;;;;;;;;17.60;73.01;99659.69;5071593;28;19948;-69
2023/09/27 03:29:25;;;;;;;;;;;;;;;17.54;73.40;99659.19;5070370;28;19913;-70
2023/09/27 03:31:50;;;;;;;;;;;;;;;17.64;72.92;99656.94;5071560;28;19919;-69
2023/09/27 03:34:16;;;;;;;;;;;;;;;17.60;73.27;99665.34;5071747;28;19920;-69
2023/09/27 03:36:43;;;;;;;;;;;;;;;17.47;73.78;99661.91;5070944;28;19917;-70
2023/09/27 03:39:09;;;;;;;;;;;;;;;17.36;74.37;99664.56;5071454;28;19943;-69
2023/09/27 03:41:34;;;;;;;;;;;;;;;17.37;74.19;99669.00;5071514;28;20375;-69
2023/09/27 03:44:00;;;;;;;;;;;;;;;17.21;75.21;99677.59;5071427;28;19916;-69
2023/09/27 03:46:25;;;;;;;;;;;;;;;17.10;75.38;99676.56;5087583;28;19931;-69
2023/09/27 03:48:50;;;;;;;;;;;;;;;17.19;75.43;99680.00;5095756;28;19965;-69
2023/09/27 03:51:34;;;;;;;;;;;;;;;16.95;76.80;99669.78;5092693;28;20405;-69
2023/09/27 03:53:59;;;;;;;;;;;;;;;16.90;76.78;99676.59;5075367;28;20015;-69
2023/09/27 03:56:24;;;;;;;;;;;;;;;16.56;78.49;99671.47;5075547;28;20012;-69
2023/09/27 03:58:50;;;;;;;;;;;;;;;16.73;78.11;99674.22;5075267;28;19966;-69
2023/09/27 04:01:15;;;;;;;;;;;;;;;16.82;77.64;99674.81;5075230;28;20369;-69
2023/09/27 04:03:41;;;;;;;;;;;;;;;16.58;78.51;99671.09;5075137;28;19970;-70
2023/09/27 04:06:06;;;;;;;;;;;;;;;16.75;78.11;99675.47;5075222;28;19916;-69
2023/09/27 04:08:32;;;;;;;;;;;;;;;16.85;78.30;99679.69;5073385;28;19917;-69
2023/09/27 04:10:57;;;;;;;;;;;;;;;16.97;77.34;99678.75;5075380;28;19956;-69
2023/09/27 04:13:22;;;;;;;;;;;;;;;17.05;77.12;99679.72;5075052;28;19954;-70
2023/09/27 04:15:50;;;;;;;;;;;;;;;17.24;76.09;99678.88;5085437;28;20414;-70
2023/09/27 04:18:16;;;;;;;;;;;;;;;17.23;76.02;99686.50;5095153;28;19998;-69
2023/09/27 04:20:41;;;;;;;;;;;;;;;17.25;76.17;99681.31;5095242;28;19955;-69
2023/09/27 04:23:06;;;;;;;;;;;;;;;17.26;75.81;99682.97;5095077;28;19927;-70
2023/09/27 04:25:31;;;;;;;;;;;;;;;17.36;75.13;99692.00;5077405;28;20383;-69
2023/09/27 04:27:57;;;;;;;;;;;;;;;17.31;75.04;99689.47;5074771;28;19921;-69
2023/09/27 04:30:22;;;;;;;;;;;;;;;17.11;75.74;99689.50;5074723;28;19916;-69
2023/09/27 04:32:51;;;;;;;;;;;;;;;16.92;77.14;99691.16;5074724;28;19912;-70
2023/09/27 04:35:17;;;;;;;;;;;;;;;16.70;77.70;99690.72;5074761;28;19919;-70
2023/09/27 04:37:42;;;;;;;;;;;;;;;16.80;77.90;99699.78;5074645;28;19917;-70
2023/09/27 04:40:10;;;;;;;;;;;;;;;16.69;78.12;99708.84;5074510;28;19912;-69
2023/09/27 04:42:36;;;;;;;;;;;;;;;16.21;80.02;99706.16;5073799;28;19916;-69
2023/09/27 04:45:01;;;;;;;;;;;;;;;16.22;80.31;99707.00;5074658;28;19923;-69
2023/09/27 04:47:26;;;;;;;;;;;;;;;16.19;80.50;99702.09;5083572;28;19912;-70
2023/09/27 04:49:52;;;;;;;;;;;;;;;16.24;80.04;99711.09;5093463;28;19916;-70
2023/09/27 04:52:17;;;;;;;;;;;;;;;16.34;79.86;99714.50;5089768;28;19919;-70
2023/09/27 04:54:42;;;;;;;;;;;;;;;16.75;78.62;99711.38;5090226;28;19916;-70
2023/09/27 04:57:08;;;;;;;;;;;;;;;16.37;79.59;99713.81;5091988;28;19920;-71
2023/09/27 04:59:33;;;;;;;;;;;;;;;16.03;81.41;99704.94;5078742;28;19963;-69
2023/09/27 05:01:58;;;;;;;;;;;;;;;15.93;82.06;99709.16;5074314;28;19942;-69
2023/09/27 05:04:23;;;;;;;;;;;;;;;16.16;81.41;99712.13;5075148;28;19921;-69
2023/09/27 05:06:49;;;;;;;;;;;;;;;15.70;83.53;99715.41;5081359;28;19977;-69
2023/09/27 05:09:14;;;;;;;;;;;;;;;15.58;85.01;99711.50;5071852;28;19917;-69
2023/09/27 05:11:40;;;;;;;;;;;;;;;15.45;85.71;99721.22;5073129;28;19917;-69
2023/09/27 05:14:06;;;;;;;;;;;;;;;15.90;84.40;99718.34;5074099;28;19944;-70
2023/09/27 05:16:37;;;;;;;;;;;;;;;15.93;83.59;99715.59;5081242;28;19917;-69
2023/09/27 05:19:03;;;;;;;;;;;;;;;15.84;83.73;99717.75;5083936;28;19965;-69
2023/09/27 05:21:28;;;;;;;;;;;;;;;15.88;84.33;99712.22;5092403;28;20019;-70
2023/09/27 05:23:53;;;;;;;;;;;;;;;15.96;83.63;99719.72;5080731;28;20021;-69
2023/09/27 05:26:19;;;;;;;;;;;;;;;16.20;82.77;99715.81;5082433;28;19920;-69
2023/09/27 05:28:44;;;;;;;;;;;;;;;16.32;83.08;99722.53;5072770;28;19966;-70
2023/09/27 05:31:09;;;;;;;;;;;;;;;16.22;83.55;99721.13;5073471;28;19920;-69
2023/09/27 05:33:35;;;;;;;;;;;;;;;16.16;84.88;99722.56;5088184;28;19995;-70
2023/09/27 05:36:00;;;;;;;;;;;;;;;16.42;83.70;99725.63;5073768;28;19916;-69
2023/09/27 05:38:25;;;;;;;;;;;;;;;16.73;82.72;99725.03;5074704;28;19923;-69
2023/09/27 05:40:51;;;;;;;;;;;;;;;16.81;81.81;99726.84;5084035;28;19924;-70
2023/09/27 05:43:16;;;;;;;;;;;;;;;16.60;82.43;99733.66;5086299;28;19920;-68
2023/09/27 05:45:41;;;;;;;;;;;;;;;16.54;82.89;99733.13;5089216;28;19969;-70
2023/09/27 05:48:06;;;;;;;;;;;;;;;16.49;84.06;99741.06;5097440;28;20394;-68
2023/09/27 05:50:32;;;;;;;;;;;;;;;16.64;83.48;99745.03;5087053;28;19954;-69
2023/09/27 05:52:59;;;;;;;;;;;;;;;16.61;83.18;99740.94;5088504;28;20364;-69
2023/09/27 05:55:26;;;;;;;;;;;;;;;16.93;82.37;99742.81;5080171;28;20007;-71
2023/09/27 05:57:53;;;;;;;;;;;;;;;16.87;81.85;99749.97;5085286;28;20044;-70
2023/09/27 06:00:23;;;;;;;;;;;;;;;16.98;81.18;99746.16;5077450;28;19928;-70
2023/09/27 06:02:49;;;;;;;;;;;;;;;17.13;80.95;99743.66;5068641;28;19972;-69
2023/09/27 06:05:14;;;;;;;;;;;;;;;16.82;81.78;99748.25;5075657;28;19951;-70
2023/09/27 06:07:39;;;;;;;;;;;;;;;16.95;81.83;99749.72;5068870;28;19916;-71
2023/09/27 06:10:06;;;;;;;;;;;;;;;17.10;80.99;99752.88;5074697;28;20438;-68
2023/09/27 06:12:31;;;;;;;;;;;;;;;17.35;80.31;99761.03;5076447;28;19912;-71
2023/09/27 06:14:57;;;;;;;;;;;;;;;17.49;79.46;99763.31;5092737;28;20306;-71
2023/09/27 06:17:23;;;;;;;;;;;;;;;17.62;78.72;99759.13;5091496;28;19916;-70
2023/09/27 06:19:49;;;;;;;;;;;;;;;17.63;78.61;99766.41;5090059;28;19924;-69
2023/09/27 06:22:16;;;;;;;;;;;;;;;17.75;77.74;99758.94;5084247;28;19939;-72
2023/09/27 06:24:41;;;;;;;;;;;;;;;17.76;77.73;99764.22;5072364;28;19919;-73
2023/09/27 06:27:07;;;;;;;;;;;;;;;17.82;77.69;99756.25;5081597;28;20323;-71
2023/09/27 06:29:33;;;;;;;;;;;;;;;17.87;76.48;99760.78;5075130;28;19920;-73
2023/09/27 06:31:58;;;;;;;;;;;;;;;17.85;77.39;99771.63;5084762;28;19953;-71
2023/09/27 06:34:23;;;;;;;;;;;;;;;17.79;76.76;99774.78;5079421;28;19916;-71
2023/09/27 06:36:49;;;;;;;;;;;;;;;17.83;76.76;99775.66;5078398;28;19935;-71
2023/09/27 06:39:21;;;;;;;;;;;;;;;18.03;75.84;99772.78;5072817;28;20038;-70
2023/09/27 06:41:46;;;;;;;;;;;;;;;17.97;75.50;99777.09;5069415;28;19921;-72
2023/09/27 06:44:14;;;;;;;;;;;;;;;18.07;75.14;99773.66;5077912;28;19933;-72
2023/09/27 06:46:40;;;;;;;;;;;;;;;18.10;74.85;99777.75;5076447;28;20318;-72
2023/09/27 06:49:05;;;;;;;;;;;;;;;18.35;73.84;99771.66;5078332;28;19920;-70
2023/09/27 06:51:31;;;;;;;;;;;;;;;18.47;74.00;99767.81;5076598;28;20413;-70
2023/09/27 06:53:56;;;;;;;;;;;;;;;18.75;72.82;99769.41;5072533;28;20310;-70
2023/09/27 06:56:22;;;;;;;;;;;;;;;18.97;71.67;99772.53;5072657;28;19916;-70
2023/09/27 06:58:48;;;;;;;;;;;;;;;19.15;70.51;99772.78;5069489;28;19920;-69
2023/09/27 07:01:14;;;;;;;;;;;;;;;19.20;69.92;99767.59;5076777;28;20729;-70
2023/09/27 07:03:40;;;;;;;;;;;;;;;19.23;69.79;99763.16;5096221;28;19923;-70
2023/09/27 07:06:05;;;;;;;;;;;;;;;19.35;68.72;99770.59;5090306;28;19924;-69
2023/09/27 07:08:30;;;;;;;;;;;;;;;19.57;68.18;99765.97;5075020;28;20446;-70
2023/09/27 07:11:02;;;;;;;;;;;;;;;19.85;65.74;99775.16;5073797;28;19977;-72
2023/09/27 07:13:28;;;;;;;;;;;;;;;19.90;64.63;99771.94;5078109;28;19920;-71
2023/09/27 07:15:54;;;;;;;;;;;;;;;19.96;63.72;99775.25;5077096;28;19920;-71
2023/09/27 07:18:20;;;;;;;;;;;;;;;20.12;62.71;99778.66;5072290;28;20375;-73
2023/09/27 07:20:46;;;;;;;;;;;;;;;20.39;63.07;99775.59;5070689;28;19923;-70
2023/09/27 07:23:15;;;;;;;;;;;;;;;20.62;61.04;99780.22;5069451;28;19928;-70
2023/09/27 07:25:41;;;;;;;;;;;;;;;20.80;61.03;99777.47;5069879;28;19920;-68
2023/09/27 07:28:06;;;;;;;;;;;;;;;21.08;60.41;99775.22;5076431;28;20007;-69
2023/09/27 07:30:35;;;;;;;;;;;;;;;21.02;59.34;99778.44;5088216;28;20003;-70
2023/09/27 07:33:08;;;;;;;;;;;;;;;21.13;59.68;99780.50;5082036;28;20385;-71
2023/09/27 07:35:35;;;;;;;;;;;;;;;21.29;58.86;99783.81;5077916;28;19916;-72
2023/09/27 07:38:00;;;;;;;;;;;;;;;21.48;57.89;99781.00;5074835;28;19916;-72
2023/09/27 07:40:26;;;;;;;;;;;;;;;21.75;57.37;99784.34;5081209;28;19916;-73
2023/09/27 07:42:51;;;;;;;;;;;;;;;21.93;57.21;99781.53;5076999;28;19926;-72
2023/09/27 07:45:25;;;;;;;;;;;;;;;21.81;56.58;99781.94;5084570;28;19999;-72
2023/09/27 07:47:51;;;;;;;;;;;;;;;21.60;56.55;99778.63;5085813;28;19916;-72
2023/09/27 07:50:20;;;;;;;;;;;;;;;21.67;56.94;99785.59;5080752;28;20030;-72
2023/09/27 07:52:47;;;;;;;;;;;;;;;21.85;56.52;99785.63;5089178;28;20273;-73
2023/09/27 07:55:14;;;;;;;;;;;;;;;21.90;56.35;99784.38;5082363;28;19919;-72
2023/09/27 07:57:42;;;;;;;;;;;;;;;22.10;56.21;99782.75;5073031;28;20478;-72
2023/09/27 08:00:10;;;;;;;;;;;;;;;22.39;55.21;99779.09;5074593;28;19967;-72
2023/09/27 08:02:36;;;;;;;;;;;;;;;22.34;54.64;99771.75;5071949;28;19928;-73
2023/09/27 08:05:09;;;;;;;;;;;;;;;22.37;54.11;99784.38;5074644;28;19995;-72
2023/09/27 08:07:37;;;;;;;;;;;;;;;22.62;53.83;99777.88;5082220;28;19919;-72
2023/09/27 08:10:03;;;;;;;;;;;;;;;22.57;53.27;99777.06;5090334;28;19916;-72
2023/09/27 08:12:31;;;;;;;;;;;;;;;22.40;53.45;99783.56;5078388;28;19927;-73
2023/09/27 08:14:57;;;;;;;;;;;;;;;22.37;53.58;99779.47;5080267;28;19947;-72
2023/09/27 08:17:22;;;;;;;;;;;;;;;22.20;54.36;99778.28;5075574;28;20390;-73
2023/09/27 08:19:47;;;;;;;;;;;;;;;22.77;53.26;99785.16;5074478;28;19995;-70
2023/09/27 08:22:13;;;;;;;;;;;;;;;23.05;51.31;99782.63;5079151;28;19917;-72
2023/09/27 08:24:38;;;;;;;;;;;;;;;23.08;51.39;99788.31;5074747;28;19965;-70
2023/09/27 08:27:03;;;;;;;;;;;;;;;22.86;51.44;99798.97;5089753;28;20049;-71
2023/09/27 08:29:29;;;;;;;;;;;;;;;23.27;50.95;99789.88;5081999;28;19970;-72
2023/09/27 08:31:54;;;;;;;;;;;;;;;23.59;50.21;99788.09;5070702;28;20311;-71
2023/09/27 08:34:19;;;;;;;;;;;;;;;23.74;49.20;99780.25;5080073;28;19920;-71
2023/09/27 08:36:44;;;;;;;;;;;;;;;23.73;47.90;99781.47;5074504;28;19916;-71
2023/09/27 08:39:10;;;;;;;;;;;;;;;22.86;49.69;99787.56;5083187;28;19916;-70
2023/09/27 08:41:37;;;;;;;;;;;;;;;23.17;49.25;99776.44;5081071;28;19920;-70
2023/09/27 08:44:03;;;;;;;;;;;;;;;23.33;48.64;99778.84;5073195;28;20314;-70
2023/09/27 08:46:30;;;;;;;;;;;;;;;23.72;47.65;99782.72;5075584;28;19916;-71
2023/09/27 08:48:57;;;;;;;;;;;;;;;23.84;46.54;99781.41;5080489;28;20414;-70
2023/09/27 08:51:25;;;;;;;;;;;;;;;23.91;46.41;99781.34;5080576;28;19951;-70
2023/09/27 08:53:50;;;;;;;;;;;;;;;24.07;46.39;99780.03;5086443;28;19922;-70
2023/09/27 08:56:16;;;;;;;;;;;;;;;24.07;46.16;99777.19;5080149;28;19947;-71
2023/09/27 08:58:45;;;;;;;;;;;;;;;24.10;47.51;99776.31;5069839;28;20378;-71
2023/09/27 09:01:10;;;;;;;;;;;;;;;24.19;46.28;99770.13;5078616;28;19920;-70
2023/09/27 09:03:36;;;;;;;;;;;;;;;23.97;45.64;99773.94;5076147;28;19927;-71
2023/09/27 09:06:04;;;;;;;;;;;;;;;24.02;46.65;99769.84;5081209;28;20381;-73
2023/09/27 09:08:30;;;;;;;;;;;;;;;24.05;45.83;99768.22;5076561;28;19977;-74
2023/09/27 09:10:55;;;;;;;;;;;;;;;24.08;44.62;99773.09;5089422;28;20390;-74
2023/09/27 09:13:22;;;;;;;;;;;;;;;24.15;44.60;99764.47;5090614;28;20315;-75
2023/09/27 09:15:49;;;;;;;;;;;;;;;24.06;44.45;99770.63;5073389;28;19928;-74
2023/09/27 09:18:28;;;;;;;;;;;;;;;24.17;44.95;99767.72;5081886;28;19927;-74
2023/09/27 09:20:55;;;;;;;;;;;;;;;24.42;44.54;99765.84;5069521;28;19963;-74
2023/09/27 09:23:28;;;;;;;;;;;;;;;24.54;43.48;99773.88;5077215;28;19931;-75
2023/09/27 09:25:54;;;;;;;;;;;;;;;24.58;43.00;99765.28;5077992;28;20406;-73
2023/09/27 09:28:20;;;;;;;;;;;;;;;24.57;42.34;99769.38;5076141;28;20383;-74
2023/09/27 09:30:45;;;;;;;;;;;;;;;24.69;42.29;99763.09;5079283;28;19924;-74
2023/09/27 09:33:20;;;;;;;;;;;;;;;24.90;42.09;99759.22;5084633;28;19929;-74
2023/09/27 09:35:46;;;;;;;;;;;;;;;24.93;41.18;99761.25;5078345;28;20011;-74
2023/09/27 09:38:12;;;;;;;;;;;;;;;24.89;42.22;99763.31;5082691;28;19916;-74
2023/09/27 09:40:53;;;;;;;;;;;;;;;25.08;41.47;99758.19;5092049;28;20382;-74
2023/09/27 09:43:37;;;;;;;;;;;;;;;25.21;41.78;99758.41;5081534;28;19927;-73
2023/09/27 09:46:06;;;;;;;;;;;;;;;25.11;41.13;99751.59;5080352;28;20291;-74
2023/09/27 09:48:33;;;;;;;;;;;;;;;25.06;40.28;99755.75;5079809;28;20475;-74
2023/09/27 09:51:03;;;;;;;;;;;;;;;25.07;41.22;99748.00;5075967;28;19980;-74
2023/09/27 09:53:29;;;;;;;;;;;;;;;25.43;41.43;99750.38;5080018;28;19993;-74
2023/09/27 09:55:55;;;;;;;;;;;;;;;25.69;40.94;99750.84;5079613;28;20383;-74
2023/09/27 09:58:29;;;;;;;;;;;;;;;25.85;39.58;99753.03;5085492;28;20322;-74
2023/09/27 10:00:57;;;;;;;;;;;;;;;26.12;40.81;99748.50;5081739;28;19924;-74
2023/09/27 10:03:25;;;;;;;;;;;;;;;26.23;39.76;99745.50;5090020;28;19916;-74
2023/09/27 10:05:53;;;;;;;;;;;;;;;26.21;38.76;99741.00;5082761;28;19920;-74
2023/09/27 10:08:19;;;;;;;;;;;;;;;26.35;38.26;99739.91;5084522;28;19970;-74
2023/09/27 10:10:44;;;;;;;;;;;;;;;26.54;38.97;99745.31;5084856;28;19924;-74
2023/09/27 10:13:10;;;;;;;;;;;;;;;26.70;38.13;99736.00;5091233;28;19919;-74
2023/09/27 10:15:37;;;;;;;;;;;;;;;26.66;38.61;99736.06;5086862;28;19916;-74
2023/09/27 10:18:21;;;;;;;;;;;;;;;26.65;38.88;99731.56;5076466;28;19925;-74
2023/09/27 10:21:10;;;;;;;;;;;;;;;26.82;37.89;99737.41;5078760;28;19916;-74
2023/09/27 10:23:45;;;;;;;;;;;;;;;26.94;37.59;99725.31;5086364;28;20387;-74
2023/09/27 10:26:25;;;;;;;;;;;;;;;27.19;36.85;99726.81;5077076;28;19926;-74
2023/09/27 10:29:18;;;;;;;;;;;;;;;27.51;36.80;99716.63;5083371;28;19924;-74
2023/09/27 10:31:56;;;;;;;;;;;;;;;27.54;35.78;99715.81;5084637;28;19974;-74
2023/09/27 10:34:24;;;;;;;;;;;;;;;27.45;35.41;99709.81;5083695;28;19921;-74
2023/09/27 10:36:49;;;;;;;;;;;;;;;27.47;35.41;99696.66;5085238;28;19920;-74
2023/09/27 10:39:15;;;;;;;;;;;;;;;27.60;35.34;99698.84;5083134;28;19924;-74
2023/09/27 10:41:46;;;;;;;;;;;;;;;27.46;35.38;99694.22;5083761;28;19920;-74
2023/09/27 10:44:12;;;;;;;;;;;;;;;27.58;34.90;99690.66;5084951;28;19920;-74
2023/09/27 10:46:45;;;;;;;;;;;;;;;27.43;35.51;99680.75;5081664;28;20406;-74
2023/09/27 10:49:10;;;;;;;;;;;;;;;27.65;34.83;99677.41;5080596;28;19939;-74
2023/09/27 10:51:36;;;;;;;;;;;;;;;27.87;34.88;99672.72;5075464;28;19931;-74
2023/09/27 10:54:08;;;;;;;;;;;;;;;28.03;34.38;99671.88;5078755;28;19921;-74
2023/09/27 10:56:33;;;;;;;;;;;;;;;27.83;34.42;99671.19;5081964;28;19928;-74
2023/09/27 10:58:59;;;;;;;;;;;;;;;28.00;35.08;99669.13;5076768;28;20370;-74
2023/09/27 11:01:24;;;;;;;;;;;;;;;27.87;35.91;99661.22;5083175;28;19924;-74
2023/09/27 11:03:59;;;;;;;;;;;;;;;27.81;35.27;99663.03;5073806;28;20018;-75
2023/09/27 11:06:24;;;;;;;;;;;;;;;27.58;35.43;99653.31;5075831;28;19924;-70
2023/09/27 11:08:49;;;;;;;;;;;;;;;27.49;35.15;99652.31;5075716;28;19926;-69
2023/09/27 11:11:15;;;;;;;;;;;;;;;27.58;36.45;99650.44;5080630;28;19916;-68
2023/09/27 11:13:44;;;;;;;;;;;;;;;28.08;35.24;99653.28;5082178;28;19916;-69
2023/09/27 11:16:10;;;;;;;;;;;;;;;28.36;34.40;99650.09;5082452;28;20001;-69
2023/09/27 11:18:42;;;;;;;;;;;;;;;28.63;34.02;99643.97;5089707;28;20403;-68
2023/09/27 11:21:08;;;;;;;;;;;;;;;28.28;34.29;99644.53;5086706;28;19924;-69
2023/09/27 11:23:53;;;;;;;;;;;;;;;28.31;34.67;99642.84;5071456;28;19926;-68
2023/09/27 11:26:21;;;;;;;;;;;;;;;28.43;34.34;99639.19;5080573;28;19919;-70
2023/09/27 11:29:09;;;;;;;;;;;;;;;28.52;33.30;99629.09;5075304;28;19927;-70
2023/09/27 11:31:35;;;;;;;;;;;;;;;28.55;33.86;99628.19;5084535;28;20409;-72
2023/09/27 11:34:14;;;;;;;;;;;;;;;28.53;34.85;99636.47;5085150;28;19923;-70
2023/09/27 11:36:51;;;;;;;;;;;;;;;27.95;34.18;99632.28;5071720;28;19927;-71
2023/09/27 11:39:18;;;;;;;;;;;;;;;28.25;34.77;99625.31;5071431;28;20284;-71
2023/09/27 11:41:43;;;;;;;;;;;;;;;28.10;34.06;99626.97;5072542;28;20279;-73
2023/09/27 11:44:35;;;;;;;;;;;;;;;27.56;34.56;99627.13;5078004;28;19977;-70
2023/09/27 11:47:05;;;;;;;;;;;;;;;27.93;35.13;99611.81;5080749;28;20322;-70
2023/09/27 11:49:30;;;;;;;;;;;;;;;27.93;34.65;99615.47;5072620;28;20040;-70
2023/09/27 11:51:55;;;;;;;;;;;;;;;28.27;33.92;99613.38;5071455;28;20409;-70
2023/09/27 11:54:21;;;;;;;;;;;;;;;28.32;33.50;99615.69;5069334;28;19920;-71
2023/09/27 11:56:47;;;;;;;;;;;;;;;28.17;34.26;99598.84;5086053;28;19938;-71
2023/09/27 11:59:12;;;;;;;;;;;;;;;28.30;34.69;99598.09;5072424;28;19962;-70
2023/09/27 12:01:37;;;;;;;;;;;;;;;28.28;34.68;99598.53;5091599;28;20378;-70
2023/09/27 12:04:03;;;;;;;;;;;;;;;28.07;34.73;99599.91;5082026;28;19920;-70
2023/09/27 12:06:29;;;;;;;;;;;;;;;27.80;34.70;99595.31;5078561;28;19917;-71
2023/09/27 12:08:54;;;;;;;;;;;;;;;27.78;34.36;99592.09;5077872;28;19954;-70
2023/09/27 12:11:20;;;;;;;;;;;;;;;28.00;34.58;99580.81;5073433;28;19923;-70
2023/09/27 12:13:45;;;;;;;;;;;;;;;28.04;34.18;99589.34;5073434;28;19923;-70
2023/09/27 12:16:11;;;;;;;;;;;;;;;27.71;34.24;99583.66;5092254;28;19912;-70
2023/09/27 12:18:36;;;;;;;;;;;;;;;27.39;35.17;99577.47;5083622;28;20390;-71
2023/09/27 12:21:01;;;;;;;;;;;;;;;27.35;35.10;99576.75;5085538;28;19924;-71
2023/09/27 12:23:27;;;;;;;;;;;;;;;27.57;34.42;99568.41;5092269;28;19927;-70
2023/09/27 12:25:52;;;;;;;;;;;;;;;28.05;33.93;99572.88;5092475;28;19962;-71
2023/09/27 12:28:19;;;;;;;;;;;;;;;28.33;34.06;99562.66;5074727;28;19924;-72
2023/09/27 12:30:44;;;;;;;;;;;;;;;28.49;33.30;99561.78;5074521;28;20006;-70
2023/09/27 12:33:09;;;;;;;;;;;;;;;28.73;33.19;99556.53;5074255;28;19967;-70
2023/09/27 12:35:35;;;;;;;;;;;;;;;29.04;32.83;99546.56;5081972;28;20433;-71
2023/09/27 12:38:04;;;;;;;;;;;;;;;29.07;32.43;99551.38;5073832;28;19921;-69
2023/09/27 12:40:31;;;;;;;;;;;;;;;28.88;34.11;99553.22;5072998;28;19920;-70
2023/09/27 12:42:56;;;;;;;;;;;;;;;28.77;33.40;99546.97;5074774;28;20061;-69
2023/09/27 12:45:21;;;;;;;;;;;;;;;28.89;33.84;99554.84;5072615;28;20014;-70